createdAt,value
2022-08-16T00:03:37.730Z,18.67
2022-08-16T00:08:40.993Z,19.38
2022-08-16T00:13:53.403Z,19.25
2022-08-16T00:19:00.263Z,18.25
2022-08-16T00:24:04.738Z,18.95
2022-08-16T00:29:08.506Z,19.58
2022-08-16T00:34:18.237Z,17.95
2022-08-16T00:39:22.044Z,19.30
2022-08-16T00:44:32.820Z,19.17
2022-08-16T00:49:39.470Z,18.55
2022-08-16T00:54:47.850Z,18.63
2022-08-16T00:59:58.756Z,18.65
2022-08-16T01:05:09.537Z,18.77
2022-08-16T01:10:16.153Z,18.85
2022-08-16T01:15:20.786Z,19.08
2022-08-16T01:20:33.978Z,19.80
2022-08-16T01:25:44.147Z,17.58
2022-08-16T01:30:50.996Z,16.25
2022-08-16T01:35:58.001Z,17.38
2022-08-16T01:41:05.668Z,18.80
2022-08-16T01:46:29.719Z,18.48
2022-08-16T01:51:34.962Z,18.73
2022-08-16T01:56:44.854Z,18.33
2022-08-16T02:01:59.454Z,19.30
2022-08-16T02:07:11.168Z,18.35
2022-08-16T02:12:51.725Z,16.88
2022-08-16T02:17:40.073Z,18.50
2022-08-16T02:22:43.686Z,20.73
2022-08-16T02:27:52.041Z,21.70
2022-08-16T02:32:56.135Z,20.67
2022-08-16T02:38:08.398Z,18.63
2022-08-16T02:43:13.938Z,18.45
2022-08-16T02:48:29.133Z,17.85
2022-08-16T02:53:34.787Z,16.83
2022-08-16T02:58:40.459Z,16.95
2022-08-16T03:04:30.199Z,19.38
2022-08-16T03:09:13.858Z,17.27
2022-08-16T03:14:21.270Z,17.90
2022-08-16T03:19:48.346Z,16.75
2022-08-16T03:24:51.730Z,17.23
2022-08-16T03:29:56.173Z,16.45
2022-08-16T03:34:59.939Z,18.63
2022-08-16T03:40:07.366Z,19.65
2022-08-16T03:45:12.412Z,18.83
2022-08-16T03:50:26.159Z,18.08
2022-08-16T03:55:39.987Z,19.70
2022-08-16T04:00:56.941Z,18.90
2022-08-16T04:06:02.792Z,18.38
2022-08-16T04:11:06.441Z,19.95
2022-08-16T04:16:26.730Z,19.63
2022-08-16T04:21:32.326Z,19.80
2022-08-16T04:26:36.362Z,19.13
2022-08-16T04:31:41.149Z,18.13
2022-08-16T04:36:48.918Z,16.60
2022-08-16T04:41:57.010Z,17.73
2022-08-16T04:47:21.668Z,16.90
2022-08-16T04:52:33.112Z,17.20
2022-08-16T04:57:38.488Z,16.63
2022-08-16T05:02:43.371Z,14.30
2022-08-16T05:07:58.617Z,14.88
2022-08-16T05:13:05.145Z,16.05
2022-08-16T05:18:15.861Z,16.45
2022-08-16T05:23:19.660Z,17.33
2022-08-16T05:28:30.935Z,15.77
2022-08-16T05:33:42.497Z,15.60
2022-08-16T05:38:46.054Z,13.90
2022-08-16T05:43:49.495Z,13.82
2022-08-16T05:48:54.745Z,15.07
2022-08-16T05:53:58.306Z,13.93
2022-08-16T05:59:01.183Z,14.43
2022-08-16T06:04:13.557Z,13.80
2022-08-16T06:09:43.405Z,13.80
2022-08-16T06:14:47.212Z,13.82
2022-08-16T06:19:55.961Z,13.82
2022-08-16T06:24:59.612Z,14.20
2022-08-16T06:30:04.030Z,14.82
2022-08-16T06:35:12.171Z,15.82
2022-08-16T06:40:15.751Z,13.30
2022-08-16T06:45:19.462Z,13.88
2022-08-16T06:50:29.476Z,14.07
2022-08-16T06:55:34.921Z,14.27
2022-08-16T07:00:43.048Z,13.90
2022-08-16T07:05:47.821Z,13.18
2022-08-16T07:10:50.883Z,13.63
2022-08-16T07:15:55.329Z,13.13
2022-08-16T07:21:02.275Z,13.40
2022-08-16T07:26:08.003Z,13.10
2022-08-16T07:31:12.975Z,13.57
2022-08-16T07:36:21.682Z,13.13
2022-08-16T07:41:25.566Z,12.10
2022-08-16T07:46:38.777Z,13.05
2022-08-16T07:51:46.014Z,14.57
2022-08-16T07:56:49.790Z,13.75
2022-08-16T08:01:55.181Z,13.25
2022-08-16T08:07:00.511Z,12.93
2022-08-16T08:12:05.488Z,13.00
2022-08-16T08:17:09.384Z,12.32
2022-08-16T08:22:18.902Z,11.30
2022-08-16T08:27:23.513Z,11.40
2022-08-16T08:32:57.757Z,11.27
2022-08-16T08:37:55.364Z,11.80
2022-08-16T08:43:11.657Z,12.15
2022-08-16T08:48:34.255Z,11.45
2022-08-16T08:53:40.712Z,11.90
2022-08-16T08:58:54.041Z,10.70
2022-08-16T09:04:02.681Z,11.68
2022-08-16T09:09:10.119Z,11.05
2022-08-16T09:14:24.629Z,12.23
2022-08-16T09:19:31.922Z,10.70
2022-08-16T09:24:46.931Z,11.00
2022-08-16T09:30:00.487Z,10.77
2022-08-16T09:35:07.403Z,12.13
2022-08-16T09:40:32.317Z,12.32
2022-08-16T09:45:39.589Z,12.45
2022-08-16T09:50:44.655Z,12.85
2022-08-16T09:55:56.759Z,13.20
2022-08-16T10:01:01.115Z,12.77
2022-08-16T10:06:04.253Z,14.25
2022-08-16T10:11:27.509Z,12.57
2022-08-16T10:16:32.089Z,12.80
2022-08-16T10:21:35.471Z,14.10
2022-08-16T10:27:20.421Z,13.88
2022-08-16T10:32:03.746Z,14.40
2022-08-16T10:37:06.732Z,13.93
2022-08-16T10:42:13.578Z,15.57
2022-08-16T10:47:17.415Z,15.00
2022-08-16T10:52:21.013Z,13.32
2022-08-16T10:57:32.864Z,14.07
2022-08-16T11:02:59.322Z,13.27
2022-08-16T11:08:00.842Z,13.45
2022-08-16T11:18:47.987Z,13.43
2022-08-16T11:23:57.566Z,13.82
2022-08-16T11:29:18.799Z,12.95
2022-08-16T11:34:21.901Z,13.00
2022-08-16T11:39:25.344Z,11.38
2022-08-16T11:44:52.235Z,12.25
2022-08-16T11:49:53.480Z,13.00
2022-08-16T11:55:00.034Z,14.02
2022-08-16T12:00:33.641Z,13.48
2022-08-16T12:05:36.221Z,14.20
2022-08-16T12:10:43.101Z,13.30
2022-08-16T12:15:48.353Z,12.20
2022-08-16T12:20:55.085Z,12.13
2022-08-16T12:25:59.668Z,10.00
2022-08-16T12:31:04.932Z,9.10
2022-08-16T12:36:09.908Z,7.95
2022-08-16T12:41:25.030Z,7.38
2022-08-16T12:46:30.926Z,8.23
2022-08-16T12:51:58.435Z,7.68
2022-08-16T12:57:01.980Z,7.55
2022-08-16T13:02:07.257Z,8.57
2022-08-16T13:07:15.971Z,9.45
2022-08-16T13:12:21.145Z,10.38
2022-08-16T13:17:29.698Z,10.73
2022-08-16T13:22:33.496Z,10.00
2022-08-16T13:28:02.116Z,10.40
2022-08-16T13:33:02.394Z,8.02
2022-08-16T13:38:24.279Z,8.65
2022-08-16T13:43:29.171Z,8.20
2022-08-16T13:48:44.734Z,8.18
2022-08-16T13:53:59.395Z,7.53
2022-08-16T13:59:03.425Z,8.05
2022-08-16T14:04:10.733Z,7.15
2022-08-16T14:09:22.171Z,7.07
2022-08-16T14:14:29.061Z,7.38
2022-08-16T14:19:34.141Z,8.73
2022-08-16T14:24:38.994Z,8.48
2022-08-16T14:29:42.550Z,9.20
2022-08-16T14:34:47.736Z,9.75
2022-08-16T14:39:55.783Z,8.30
2022-08-16T14:45:00.523Z,8.98
2022-08-16T14:50:09.281Z,9.15
2022-08-16T14:55:17.803Z,9.05
2022-08-16T15:00:34.055Z,10.15
2022-08-16T15:05:43.886Z,10.38
2022-08-16T15:10:57.110Z,12.32
2022-08-16T15:16:02.831Z,10.25
2022-08-16T15:21:09.085Z,9.13
2022-08-16T15:26:29.700Z,9.60
2022-08-16T15:31:41.745Z,9.02
2022-08-16T15:36:50.126Z,9.20
2022-08-16T15:42:07.196Z,9.70
2022-08-16T15:47:17.831Z,8.93
2022-08-16T15:52:31.897Z,8.90
2022-08-16T15:57:41.368Z,8.88
2022-08-16T16:02:49.506Z,9.27
2022-08-16T16:08:10.851Z,8.98
2022-08-16T16:13:24.228Z,9.48
2022-08-16T16:18:30.195Z,9.15
2022-08-16T16:23:53.804Z,9.10
2022-08-16T16:29:15.015Z,9.38
2022-08-16T16:34:26.053Z,10.02
2022-08-16T16:39:37.654Z,10.27
2022-08-16T16:44:50.219Z,10.95
2022-08-16T16:49:54.133Z,10.70
2022-08-16T16:54:58.803Z,11.15
2022-08-16T17:00:25.773Z,23.23
2022-08-16T17:05:32.715Z,14.32
2022-08-16T17:10:46.045Z,11.88
2022-08-16T17:15:53.682Z,19.08
2022-08-16T17:20:56.667Z,12.40
2022-08-16T17:26:10.378Z,10.85
2022-08-16T17:31:14.400Z,10.85
2022-08-16T17:36:35.867Z,12.63
2022-08-16T17:41:42.202Z,12.80
2022-08-16T17:47:10.668Z,13.75
2022-08-16T17:52:22.147Z,12.23
2022-08-16T17:57:37.339Z,12.15
2022-08-16T18:03:10.808Z,18.02
2022-08-16T18:08:17.174Z,16.52
2022-08-16T18:13:22.238Z,12.02
2022-08-16T18:18:31.014Z,11.25
2022-08-16T18:23:34.661Z,11.85
2022-08-16T18:28:44.079Z,12.20
2022-08-16T18:33:58.859Z,11.00
2022-08-16T18:39:02.245Z,11.95
2022-08-16T18:44:25.745Z,11.50
2022-08-16T18:49:34.820Z,11.70
2022-08-16T18:55:02.385Z,11.02
2022-08-16T19:00:02.947Z,12.82
2022-08-16T19:05:07.599Z,11.52
2022-08-16T19:10:12.436Z,11.95
2022-08-16T19:15:20.536Z,13.90
2022-08-16T19:20:25.866Z,14.48
2022-08-16T19:25:48.454Z,15.48
2022-08-16T19:30:54.761Z,14.40
2022-08-16T19:35:58.350Z,14.98
2022-08-16T19:41:01.510Z,14.80
2022-08-16T19:46:06.739Z,14.90
2022-08-16T19:51:10.673Z,15.23
2022-08-16T19:56:13.834Z,15.77
2022-08-16T20:01:18.380Z,14.82
2022-08-16T20:06:34.923Z,15.30
2022-08-16T20:11:41.538Z,13.98
2022-08-16T20:16:47.017Z,15.52
2022-08-16T20:21:50.193Z,14.02
2022-08-16T20:26:54.246Z,13.60
2022-08-16T20:31:58.972Z,16.25
2022-08-16T20:37:02.151Z,16.10
2022-08-16T20:42:21.380Z,17.15
2022-08-16T20:47:26.021Z,16.75
2022-08-16T20:52:28.920Z,16.60
2022-08-16T20:57:31.890Z,16.98
2022-08-16T21:02:38.052Z,16.27
2022-08-16T21:07:40.961Z,18.38
2022-08-16T21:12:49.538Z,19.02
2022-08-16T21:17:54.535Z,18.27
2022-08-16T21:22:59.957Z,18.55
2022-08-16T21:28:40.045Z,19.17
2022-08-16T21:33:29.392Z,18.58
2022-08-16T21:38:32.372Z,17.63
2022-08-16T21:43:36.421Z,19.27
2022-08-16T21:48:40.968Z,19.35
2022-08-16T21:53:44.583Z,17.35
2022-08-16T21:58:53.101Z,18.23
2022-08-16T22:04:35.499Z,19.42
2022-08-16T22:09:21.329Z,18.33
2022-08-16T22:14:24.383Z,20.17
2022-08-16T22:19:29.205Z,18.65
2022-08-16T22:24:32.568Z,20.63
2022-08-16T22:29:35.590Z,22.90
2022-08-16T22:34:59.528Z,21.48
2022-08-16T22:45:20.564Z,20.80
2022-08-16T22:50:25.721Z,18.38
2022-08-16T22:55:29.583Z,19.75
2022-08-16T23:00:34.567Z,20.38
2022-08-16T23:05:41.372Z,20.48
2022-08-16T23:10:45.584Z,19.77
2022-08-16T23:15:51.911Z,20.90
2022-08-16T23:20:58.522Z,18.90
2022-08-16T23:26:01.747Z,20.00
2022-08-16T23:31:06.018Z,18.75
2022-08-16T23:36:11.996Z,21.00
2022-08-16T23:41:15.976Z,20.45
2022-08-16T23:46:19.823Z,18.70
2022-08-16T23:51:24.317Z,19.52
2022-08-16T23:56:27.386Z,18.17
